createdAt,value
2022-08-26T00:00:19.920Z,21.97
2022-08-26T00:03:03.656Z,21.95
2022-08-26T00:05:31.850Z,21.93
2022-08-26T00:07:59.985Z,21.92
2022-08-26T00:10:29.112Z,21.91
2022-08-26T00:12:57.353Z,21.90
2022-08-26T00:15:25.738Z,21.88
2022-08-26T00:17:56.672Z,21.88
2022-08-26T00:20:30.024Z,21.87
2022-08-26T00:22:59.273Z,21.86
2022-08-26T00:25:27.955Z,21.85
2022-08-26T00:27:56.118Z,21.84
2022-08-26T00:30:27.982Z,21.84
2022-08-26T00:32:57.293Z,21.84
2022-08-26T00:35:27.969Z,21.83
2022-08-26T00:37:57.541Z,21.82
2022-08-26T00:40:34.041Z,21.81
2022-08-26T00:43:05.225Z,21.80
2022-08-26T00:45:44.582Z,21.78
2022-08-26T00:48:16.207Z,21.76
2022-08-26T00:50:53.404Z,21.75
2022-08-26T00:53:25.983Z,21.73
2022-08-26T00:56:08.286Z,21.73
2022-08-26T00:58:39.218Z,21.71
2022-08-26T01:01:10.614Z,21.70
2022-08-26T01:03:39.399Z,21.69
2022-08-26T01:06:13.019Z,21.68
2022-08-26T01:08:42.079Z,21.65
2022-08-26T01:11:10.317Z,21.63
2022-08-26T01:13:39.615Z,21.61
2022-08-26T01:16:13.813Z,21.58
2022-08-26T01:18:45.098Z,21.56
2022-08-26T01:21:17.371Z,21.54
2022-08-26T01:23:49.881Z,21.53
2022-08-26T01:26:41.494Z,21.51
2022-08-26T01:29:15.153Z,21.49
2022-08-26T01:31:52.689Z,21.47
2022-08-26T01:34:25.364Z,21.45
2022-08-26T01:37:07.802Z,21.44
2022-08-26T01:39:40.689Z,21.43
2022-08-26T01:42:14.394Z,21.41
2022-08-26T01:44:50.409Z,21.40
2022-08-26T01:47:21.618Z,21.38
2022-08-26T01:49:53.740Z,21.36
2022-08-26T01:52:28.125Z,21.34
2022-08-26T01:54:59.235Z,21.33
2022-08-26T01:57:29.263Z,21.32
2022-08-26T02:00:01.980Z,21.31
2022-08-26T02:02:46.366Z,21.29
2022-08-26T02:05:22.160Z,21.27
2022-08-26T02:07:51.026Z,21.25
2022-08-26T02:10:22.369Z,21.23
2022-08-26T02:12:51.704Z,21.22
2022-08-26T02:15:19.749Z,21.21
2022-08-26T02:17:49.552Z,21.20
2022-08-26T02:20:22.001Z,21.19
2022-08-26T02:22:50.197Z,21.19
2022-08-26T02:25:31.582Z,21.17
2022-08-26T02:28:00.444Z,21.16
2022-08-26T02:30:32.237Z,21.14
2022-08-26T02:33:04.037Z,21.13
2022-08-26T02:35:33.860Z,21.13
2022-08-26T02:38:09.856Z,21.12
2022-08-26T02:40:41.608Z,21.10
2022-08-26T02:43:12.498Z,21.09
2022-08-26T02:45:41.544Z,21.08
2022-08-26T02:48:14.879Z,21.06
2022-08-26T02:50:43.870Z,21.05
2022-08-26T02:53:13.225Z,21.03
2022-08-26T02:55:42.515Z,21.01
2022-08-26T02:58:11.722Z,20.98
2022-08-26T03:00:52.558Z,20.96
2022-08-26T03:03:22.563Z,20.93
2022-08-26T03:05:53.852Z,20.89
2022-08-26T03:08:22.489Z,20.86
2022-08-26T03:10:51.125Z,20.83
2022-08-26T03:13:19.235Z,20.80
2022-08-26T03:15:47.644Z,20.76
2022-08-26T03:18:16.458Z,20.73
2022-08-26T03:20:44.981Z,20.70
2022-08-26T03:23:13.010Z,20.67
2022-08-26T03:25:41.161Z,20.65
2022-08-26T03:28:09.700Z,20.63
2022-08-26T03:30:44.965Z,20.59
2022-08-26T03:33:14.493Z,20.56
2022-08-26T03:35:45.339Z,20.53
2022-08-26T03:38:14.136Z,20.51
2022-08-26T03:40:42.973Z,20.49
2022-08-26T03:43:14.669Z,20.47
2022-08-26T03:45:43.509Z,20.46
2022-08-26T03:48:14.605Z,20.45
2022-08-26T03:50:43.090Z,20.44
2022-08-26T03:53:12.804Z,20.43
2022-08-26T03:55:42.399Z,20.42
2022-08-26T03:58:11.417Z,20.39
2022-08-26T04:00:39.620Z,20.36
2022-08-26T04:03:07.761Z,20.31
2022-08-26T04:05:38.182Z,20.28
2022-08-26T04:08:07.241Z,20.25
2022-08-26T04:10:38.572Z,20.21
2022-08-26T04:13:06.812Z,20.21
2022-08-26T04:15:35.004Z,20.19
2022-08-26T04:18:03.029Z,20.17
2022-08-26T04:20:32.152Z,20.17
2022-08-26T04:23:00.488Z,20.17
2022-08-26T04:25:28.606Z,20.16
2022-08-26T04:27:57.289Z,20.16
2022-08-26T04:30:25.752Z,20.15
2022-08-26T04:32:54.819Z,20.16
2022-08-26T04:35:25.788Z,20.17
2022-08-26T04:37:54.446Z,20.17
2022-08-26T04:40:23.236Z,20.18
2022-08-26T04:42:51.602Z,20.20
2022-08-26T04:45:22.742Z,20.23
2022-08-26T04:47:56.762Z,20.26
2022-08-26T04:50:26.673Z,20.30
2022-08-26T04:52:55.737Z,20.34
2022-08-26T04:55:38.660Z,20.39
2022-08-26T04:58:10.966Z,20.46
2022-08-26T05:00:39.174Z,20.53
2022-08-26T05:03:07.785Z,20.78
2022-08-26T05:05:40.488Z,21.26
2022-08-26T05:08:12.972Z,21.76
2022-08-26T05:10:44.210Z,22.28
2022-08-26T05:13:18.170Z,22.70
2022-08-26T05:15:49.610Z,23.20
2022-08-26T05:18:21.366Z,23.62
2022-08-26T05:20:54.705Z,23.87
2022-08-26T05:23:25.061Z,24.15
2022-08-26T05:25:59.351Z,24.30
2022-08-26T05:28:30.402Z,24.38
2022-08-26T05:30:58.667Z,24.50
2022-08-26T05:33:26.947Z,24.63
2022-08-26T05:35:55.019Z,24.83
2022-08-26T05:38:23.399Z,25.23
2022-08-26T05:40:53.319Z,25.76
2022-08-26T05:43:21.714Z,26.26
2022-08-26T05:45:50.577Z,26.73
2022-08-26T05:48:22.715Z,27.11
2022-08-26T05:50:53.947Z,27.35
2022-08-26T05:53:25.928Z,27.34
2022-08-26T05:55:55.977Z,27.24
2022-08-26T05:58:24.284Z,27.16
2022-08-26T06:01:05.362Z,27.09
2022-08-26T06:03:37.261Z,27.03
2022-08-26T06:06:11.555Z,26.95
2022-08-26T06:08:39.960Z,26.83
2022-08-26T06:11:18.539Z,26.84
2022-08-26T06:13:47.275Z,26.88
2022-08-26T06:16:19.035Z,26.99
2022-08-26T06:18:48.591Z,27.12
2022-08-26T06:21:26.450Z,27.21
2022-08-26T06:24:20.105Z,27.38
2022-08-26T06:26:51.783Z,27.76
2022-08-26T06:29:24.023Z,27.88
2022-08-26T06:31:57.217Z,27.95
2022-08-26T06:34:30.346Z,28.05
2022-08-26T06:37:02.612Z,28.09
2022-08-26T06:39:32.104Z,28.04
2022-08-26T06:42:01.224Z,28.03
2022-08-26T06:44:30.887Z,28.10
2022-08-26T06:47:00.536Z,28.24
2022-08-26T06:49:28.632Z,28.31
2022-08-26T06:51:59.915Z,28.26
2022-08-26T06:54:31.792Z,28.18
2022-08-26T06:57:01.419Z,28.07
2022-08-26T06:59:31.378Z,27.97
2022-08-26T07:01:59.608Z,27.85
2022-08-26T07:04:28.227Z,27.78
2022-08-26T07:06:56.833Z,27.72
2022-08-26T07:09:30.442Z,27.67
2022-08-26T07:11:59.357Z,27.64
2022-08-26T07:14:27.900Z,27.64
2022-08-26T07:16:56.175Z,27.66
2022-08-26T07:19:30.401Z,27.62
2022-08-26T07:22:03.449Z,27.60
2022-08-26T07:24:35.021Z,27.63
2022-08-26T07:27:05.959Z,27.65
2022-08-26T07:29:36.036Z,27.68
2022-08-26T07:32:04.241Z,27.69
2022-08-26T07:34:33.633Z,27.70
2022-08-26T07:37:02.144Z,27.71
2022-08-26T07:39:32.335Z,27.68
2022-08-26T07:42:07.426Z,27.65
2022-08-26T07:44:38.205Z,27.66
2022-08-26T07:47:10.517Z,27.63
2022-08-26T07:49:56.515Z,27.60
2022-08-26T07:52:28.268Z,27.61
2022-08-26T07:54:58.372Z,27.62
2022-08-26T07:57:27.797Z,27.64
2022-08-26T07:59:56.962Z,27.56
2022-08-26T08:02:26.068Z,27.47
2022-08-26T08:04:55.571Z,27.44
2022-08-26T08:07:38.584Z,27.44
2022-08-26T08:10:16.381Z,27.44
2022-08-26T08:12:45.521Z,27.43
2022-08-26T08:15:14.476Z,27.40
2022-08-26T08:17:44.161Z,27.39
2022-08-26T08:20:13.982Z,27.45
2022-08-26T08:22:43.324Z,27.51
2022-08-26T08:25:12.587Z,27.60
2022-08-26T08:27:45.299Z,27.71
2022-08-26T08:30:15.383Z,27.86
2022-08-26T08:32:52.538Z,28.05
2022-08-26T08:35:22.807Z,28.17
2022-08-26T08:37:54.964Z,28.33
2022-08-26T08:40:26.606Z,28.55
2022-08-26T08:43:00.009Z,28.73
2022-08-26T08:45:35.909Z,28.98
2022-08-26T08:48:19.996Z,29.18
2022-08-26T08:50:54.423Z,29.33
2022-08-26T08:53:25.360Z,29.48
2022-08-26T08:55:58.504Z,29.55
2022-08-26T08:58:45.881Z,29.51
2022-08-26T09:01:28.554Z,29.40
2022-08-26T09:04:34.408Z,29.29
2022-08-26T09:07:07.206Z,29.09
2022-08-26T09:09:46.355Z,28.97
2022-08-26T09:12:29.612Z,28.86
2022-08-26T09:15:11.699Z,28.76
2022-08-26T09:18:01.089Z,28.63
2022-08-26T09:20:52.150Z,28.51
2022-08-26T09:23:20.431Z,28.42
2022-08-26T09:25:58.825Z,28.36
2022-08-26T09:28:29.577Z,28.25
2022-08-26T09:31:13.290Z,28.24
2022-08-26T09:33:42.372Z,28.21
2022-08-26T09:36:41.467Z,28.23
2022-08-26T09:39:29.777Z,28.32
2022-08-26T09:42:20.858Z,28.31
2022-08-26T09:44:52.411Z,28.33
2022-08-26T09:47:46.390Z,28.37
2022-08-26T09:50:31.461Z,28.34
2022-08-26T09:53:25.329Z,28.29
2022-08-26T09:56:25.784Z,28.30
2022-08-26T09:58:57.111Z,28.30
2022-08-26T10:01:41.954Z,28.24
2022-08-26T10:04:24.224Z,28.22
2022-08-26T10:06:58.987Z,28.27
2022-08-26T10:09:29.882Z,28.32
2022-08-26T10:12:03.499Z,28.37
2022-08-26T10:14:39.655Z,28.38
2022-08-26T10:17:11.156Z,28.39
2022-08-26T10:19:55.584Z,28.40
2022-08-26T10:22:42.977Z,28.38
2022-08-26T10:25:17.496Z,28.40
2022-08-26T10:27:53.451Z,28.49
2022-08-26T10:30:27.826Z,28.60
2022-08-26T10:33:02.334Z,28.70
2022-08-26T10:35:33.083Z,28.80
2022-08-26T10:38:11.431Z,28.90
2022-08-26T10:41:20.676Z,28.98
2022-08-26T10:43:57.640Z,29.01
2022-08-26T10:46:34.701Z,29.02
2022-08-26T10:49:14.684Z,29.00
2022-08-26T10:52:12.284Z,28.99
2022-08-26T10:54:56.910Z,28.94
2022-08-26T10:57:33.903Z,28.87
2022-08-26T11:00:33.552Z,28.81
2022-08-26T11:03:21.888Z,28.76
2022-08-26T11:06:23.756Z,28.72
2022-08-26T11:09:04.628Z,28.71
2022-08-26T11:11:41.666Z,28.69
2022-08-26T11:14:09.775Z,28.68
2022-08-26T11:16:46.377Z,28.67
2022-08-26T11:19:59.630Z,28.64
2022-08-26T11:22:33.601Z,28.58
2022-08-26T11:25:13.299Z,28.52
2022-08-26T11:27:41.779Z,28.48
2022-08-26T11:30:19.813Z,28.44
2022-08-26T11:32:52.592Z,28.41
2022-08-26T11:35:20.761Z,28.40
2022-08-26T11:37:49.244Z,28.39
2022-08-26T11:40:30.205Z,28.38
2022-08-26T11:43:02.594Z,28.39
2022-08-26T11:45:45.697Z,28.37
2022-08-26T11:48:23.849Z,28.37
2022-08-26T11:51:03.050Z,28.38
2022-08-26T11:53:35.216Z,28.40
2022-08-26T11:56:33.396Z,28.42
2022-08-26T11:59:08.188Z,28.45
2022-08-26T12:01:40.490Z,28.48
2022-08-26T12:04:12.851Z,28.51
2022-08-26T12:06:47.873Z,28.56
2022-08-26T12:09:28.920Z,28.62
2022-08-26T12:12:14.946Z,28.71
2022-08-26T12:14:43.518Z,28.75
2022-08-26T12:17:17.691Z,28.79
2022-08-26T12:19:47.410Z,28.80
2022-08-26T12:22:34.742Z,28.78
2022-08-26T12:25:09.460Z,28.76
2022-08-26T12:27:41.551Z,28.77
2022-08-26T12:30:14.856Z,28.77
2022-08-26T12:33:21.877Z,28.75
2022-08-26T12:35:56.382Z,28.73
2022-08-26T12:38:27.278Z,28.71
2022-08-26T12:40:56.022Z,28.70
2022-08-26T12:43:45.650Z,28.71
2022-08-26T12:46:18.534Z,28.70
2022-08-26T12:48:49.808Z,28.68
2022-08-26T12:51:25.512Z,28.65
2022-08-26T12:53:54.474Z,28.61
2022-08-26T12:56:31.470Z,28.57
2022-08-26T12:59:20.033Z,28.55
2022-08-26T13:01:49.759Z,28.54
2022-08-26T13:04:38.692Z,28.53
2022-08-26T13:07:26.669Z,28.50
2022-08-26T13:09:57.789Z,28.46
2022-08-26T13:12:35.219Z,28.43
2022-08-26T13:15:06.574Z,28.40
2022-08-26T13:17:36.273Z,28.37
2022-08-26T13:20:04.863Z,28.35
2022-08-26T13:22:34.064Z,28.34
2022-08-26T13:25:02.328Z,28.32
2022-08-26T13:27:30.785Z,28.32
2022-08-26T13:30:00.109Z,28.31
2022-08-26T13:32:28.894Z,28.30
2022-08-26T13:34:57.898Z,28.32
2022-08-26T13:37:34.230Z,28.37
2022-08-26T13:40:07.294Z,28.39
2022-08-26T13:42:35.921Z,28.43
2022-08-26T13:45:04.457Z,28.46
2022-08-26T13:47:33.059Z,28.49
2022-08-26T13:50:01.665Z,28.52
2022-08-26T13:52:31.018Z,28.55
2022-08-26T13:55:00.846Z,28.58
2022-08-26T13:57:30.556Z,28.60
2022-08-26T13:59:59.617Z,28.62
2022-08-26T14:02:28.341Z,28.63
2022-08-26T14:04:56.649Z,28.66
2022-08-26T14:07:26.468Z,28.67
2022-08-26T14:09:55.161Z,28.69
2022-08-26T14:12:23.371Z,28.71
2022-08-26T14:14:51.654Z,28.73
2022-08-26T14:17:23.036Z,28.75
2022-08-26T14:19:51.925Z,28.76
2022-08-26T14:22:22.769Z,28.76
2022-08-26T14:24:51.445Z,28.77
2022-08-26T14:27:19.612Z,28.79
2022-08-26T14:29:48.100Z,28.80
2022-08-26T14:32:26.292Z,28.82
2022-08-26T14:34:55.709Z,28.83
2022-08-26T14:37:24.149Z,28.85
2022-08-26T14:39:52.656Z,28.83
2022-08-26T14:42:24.835Z,28.80
2022-08-26T14:44:57.410Z,28.80
2022-08-26T14:47:26.019Z,28.79
2022-08-26T14:49:54.442Z,28.80
2022-08-26T14:52:22.649Z,28.80
2022-08-26T14:54:54.897Z,28.81
2022-08-26T14:57:23.827Z,28.81
2022-08-26T14:59:51.881Z,28.81
2022-08-26T15:02:29.703Z,28.79
2022-08-26T15:05:05.137Z,28.79
2022-08-26T15:07:33.288Z,28.78
2022-08-26T15:10:01.665Z,28.78
2022-08-26T15:12:32.761Z,28.76
2022-08-26T15:15:01.229Z,28.76
2022-08-26T15:17:29.597Z,28.74
2022-08-26T15:19:58.095Z,28.72
2022-08-26T15:22:26.591Z,28.71
2022-08-26T15:24:58.261Z,28.69
2022-08-26T15:27:26.822Z,28.67
2022-08-26T15:29:54.928Z,28.66
2022-08-26T15:32:23.179Z,28.66
2022-08-26T15:34:53.395Z,28.66
2022-08-26T15:37:21.706Z,28.65
2022-08-26T15:39:50.032Z,28.65
2022-08-26T15:42:18.286Z,28.63
2022-08-26T15:44:46.948Z,28.61
2022-08-26T15:47:15.302Z,28.60
2022-08-26T15:49:43.883Z,28.58
2022-08-26T15:52:12.172Z,28.57
2022-08-26T15:54:40.935Z,28.55
2022-08-26T15:57:11.525Z,28.53
2022-08-26T15:59:40.761Z,28.52
2022-08-26T16:02:09.751Z,28.49
2022-08-26T16:04:38.055Z,28.47
2022-08-26T16:07:06.283Z,28.45
2022-08-26T16:09:34.446Z,28.42
2022-08-26T16:12:02.868Z,28.39
2022-08-26T16:14:31.324Z,28.36
2022-08-26T16:16:59.545Z,28.34
2022-08-26T16:19:27.810Z,28.31
2022-08-26T16:21:55.986Z,28.27
2022-08-26T16:24:29.780Z,28.24
2022-08-26T16:26:58.782Z,28.21
2022-08-26T16:29:27.803Z,28.18
2022-08-26T16:31:55.945Z,28.15
2022-08-26T16:34:24.320Z,28.11
2022-08-26T16:36:52.573Z,28.08
2022-08-26T16:39:20.713Z,28.03
2022-08-26T16:41:48.950Z,28.00
2022-08-26T16:44:17.225Z,27.96
2022-08-26T16:46:46.097Z,27.91
2022-08-26T16:49:15.000Z,27.87
2022-08-26T16:51:43.241Z,27.82
2022-08-26T16:54:11.398Z,27.78
2022-08-26T16:56:39.617Z,27.73
2022-08-26T16:59:11.712Z,27.68
2022-08-26T17:01:40.158Z,27.63
2022-08-26T17:04:08.958Z,27.57
2022-08-26T17:06:37.332Z,27.52
2022-08-26T17:09:05.599Z,27.45
2022-08-26T17:11:34.100Z,27.42
2022-08-26T17:14:02.976Z,27.36
2022-08-26T17:16:32.198Z,27.31
2022-08-26T17:19:01.174Z,27.25
2022-08-26T17:21:30.217Z,27.18
2022-08-26T17:23:58.306Z,27.13
2022-08-26T17:26:28.331Z,27.06
2022-08-26T17:28:56.674Z,27.00
2022-08-26T17:31:25.312Z,26.93
2022-08-26T17:33:55.722Z,26.86
2022-08-26T17:36:27.559Z,26.78
2022-08-26T17:38:57.699Z,26.70
2022-08-26T17:41:27.010Z,26.61
2022-08-26T17:43:55.255Z,26.53
2022-08-26T17:46:24.174Z,26.44
2022-08-26T17:48:52.844Z,26.35
2022-08-26T17:51:22.063Z,26.27
2022-08-26T17:53:51.322Z,26.19
2022-08-26T17:56:25.666Z,26.09
2022-08-26T17:58:56.442Z,26.00
2022-08-26T18:01:27.897Z,25.91
2022-08-26T18:04:00.271Z,25.83
2022-08-26T18:06:30.478Z,25.74
2022-08-26T18:08:59.640Z,25.64
2022-08-26T18:11:28.725Z,25.57
2022-08-26T18:13:57.129Z,25.50
2022-08-26T18:16:25.274Z,25.45
2022-08-26T18:18:55.085Z,25.39
2022-08-26T18:21:27.252Z,25.34
2022-08-26T18:23:55.527Z,25.30
2022-08-26T18:26:25.461Z,25.26
2022-08-26T18:28:54.211Z,25.24
2022-08-26T18:31:22.700Z,25.21
2022-08-26T18:33:51.118Z,25.19
2022-08-26T18:36:21.834Z,25.17
2022-08-26T18:38:51.125Z,25.16
2022-08-26T18:41:23.987Z,25.14
2022-08-26T18:43:53.503Z,25.13
2022-08-26T18:46:25.256Z,25.11
2022-08-26T18:48:56.710Z,25.10
2022-08-26T18:51:29.796Z,25.07
2022-08-26T18:54:00.370Z,25.06
2022-08-26T18:56:29.480Z,25.05
2022-08-26T18:58:59.124Z,25.04
2022-08-26T19:01:29.121Z,25.03
2022-08-26T19:03:58.959Z,25.03
2022-08-26T19:06:29.031Z,25.02
2022-08-26T19:08:57.843Z,25.02
2022-08-26T19:11:32.109Z,25.03
2022-08-26T19:14:08.167Z,25.03
2022-08-26T19:16:37.668Z,25.02
2022-08-26T19:19:06.428Z,25.02
2022-08-26T19:21:36.136Z,25.01
2022-08-26T19:24:07.451Z,25.01
2022-08-26T19:26:36.747Z,25.01
2022-08-26T19:29:05.142Z,25.02
2022-08-26T19:31:33.742Z,25.03
2022-08-26T19:34:02.020Z,25.04
2022-08-26T19:36:30.132Z,25.05
2022-08-26T19:38:58.361Z,25.06
2022-08-26T19:41:36.864Z,25.06
2022-08-26T19:44:09.265Z,25.06
2022-08-26T19:49:06.726Z,25.06
2022-08-26T19:51:36.575Z,25.06
2022-08-26T19:54:05.320Z,25.07
2022-08-26T19:56:33.494Z,25.07
2022-08-26T19:59:01.977Z,25.06
2022-08-26T20:01:30.860Z,25.03
2022-08-26T20:03:59.140Z,25.00
2022-08-26T20:06:27.293Z,24.97
2022-08-26T20:08:56.200Z,24.90
2022-08-26T20:11:25.256Z,24.84
2022-08-26T20:13:53.594Z,24.78
2022-08-26T20:16:21.688Z,24.72
2022-08-26T20:19:08.346Z,24.67
2022-08-26T20:21:39.390Z,24.61
2022-08-26T20:24:10.156Z,24.56
2022-08-26T20:26:40.142Z,24.53
2022-08-26T20:29:10.053Z,24.49
2022-08-26T20:31:38.969Z,24.44
2022-08-26T20:34:07.380Z,24.37
2022-08-26T20:36:38.062Z,24.29
2022-08-26T20:39:06.548Z,24.24
2022-08-26T20:41:35.735Z,24.18
2022-08-26T20:44:05.667Z,24.14
2022-08-26T20:46:35.413Z,24.09
2022-08-26T20:49:05.911Z,24.05
2022-08-26T20:51:37.536Z,24.00
2022-08-26T20:54:07.443Z,23.96
2022-08-26T20:56:35.626Z,23.91
2022-08-26T20:59:07.042Z,23.87
2022-08-26T21:01:41.912Z,23.84
2022-08-26T21:04:14.276Z,23.80
2022-08-26T21:06:45.599Z,23.77
2022-08-26T21:09:24.856Z,23.73
2022-08-26T21:11:53.781Z,23.69
2022-08-26T21:14:25.912Z,23.64
2022-08-26T21:16:54.461Z,23.59
2022-08-26T21:19:22.772Z,23.54
2022-08-26T21:21:51.142Z,23.53
2022-08-26T21:24:19.720Z,23.50
2022-08-26T21:26:48.077Z,23.48
2022-08-26T21:29:16.516Z,23.46
2022-08-26T21:31:46.736Z,23.43
2022-08-26T21:34:18.767Z,23.41
2022-08-26T21:36:47.926Z,23.38
2022-08-26T21:39:17.045Z,23.35
2022-08-26T21:41:47.589Z,23.32
2022-08-26T21:44:17.265Z,23.27
2022-08-26T21:46:46.920Z,23.24
2022-08-26T21:49:16.755Z,23.20
2022-08-26T21:51:47.613Z,23.17
2022-08-26T21:54:16.822Z,23.14
2022-08-26T21:56:47.218Z,23.11
2022-08-26T21:59:17.810Z,23.08
2022-08-26T22:01:46.662Z,23.04
2022-08-26T22:04:15.475Z,22.99
2022-08-26T22:06:46.328Z,22.96
2022-08-26T22:09:17.241Z,22.93
2022-08-26T22:11:47.589Z,22.89
2022-08-26T22:14:17.790Z,22.85
2022-08-26T22:16:50.691Z,22.80
2022-08-26T22:19:23.473Z,22.75
2022-08-26T22:21:53.951Z,22.71
2022-08-26T22:24:25.034Z,22.67
2022-08-26T22:26:54.625Z,22.62
2022-08-26T22:29:24.851Z,22.59
2022-08-26T22:31:53.645Z,22.55
2022-08-26T22:34:23.373Z,22.52
2022-08-26T22:36:52.041Z,22.49
2022-08-26T22:39:23.970Z,22.46
2022-08-26T22:41:53.518Z,22.42
2022-08-26T22:44:22.431Z,22.40
2022-08-26T22:46:54.564Z,22.38
2022-08-26T22:49:23.779Z,22.35
2022-08-26T22:51:51.902Z,22.33
2022-08-26T22:54:20.283Z,22.31
2022-08-26T22:56:48.988Z,22.27
2022-08-26T22:59:17.260Z,22.26
2022-08-26T23:01:47.174Z,22.24
2022-08-26T23:04:15.696Z,22.23
2022-08-26T23:06:47.722Z,22.22
2022-08-26T23:09:18.675Z,22.19
2022-08-26T23:11:48.718Z,22.17
2022-08-26T23:14:18.925Z,22.15
2022-08-26T23:16:48.238Z,22.13
2022-08-26T23:19:19.198Z,22.11
2022-08-26T23:21:48.768Z,22.10
2022-08-26T23:24:18.233Z,22.08
2022-08-26T23:26:47.183Z,22.06
2022-08-26T23:29:16.094Z,22.04
2022-08-26T23:31:45.562Z,22.03
2022-08-26T23:34:32.999Z,22.02
2022-08-26T23:37:02.144Z,21.99
2022-08-26T23:39:36.024Z,21.98
2022-08-26T23:42:06.885Z,21.97
2022-08-26T23:44:35.251Z,21.96
2022-08-26T23:47:05.041Z,21.96
2022-08-26T23:49:34.097Z,21.96
2022-08-26T23:52:21.749Z,21.96
2022-08-26T23:54:49.952Z,21.94
2022-08-26T23:57:19.840Z,21.95
2022-08-26T23:59:48.978Z,21.96
